Terminal Aerodrome Forecast
Issued by NWS St Louis, MO

Home | Current Version | Previous Version | Graphics & Text | Print | Product List | Glossary On
Versions: 1 2 3 4 5 6 7 8 9 10 11 12 13 14 15 16 17 18 19 20 21 22 23 24 25 26 27 28 29 30
685
FTUS43 KLSX 271514 AAA
TAFSTL
TAF AMD
KSTL 271514Z 2715/2818 07006KT P6SM FEW030
     FM272300 14007KT P6SM VCTS BKN045CB
      TEMPO 2800/2802 VRB40KT 2SM TSRA OVC035CB
     FM280300 18007KT P6SM BKN150
     FM280700 23006KT P6SM BKN150
     FM281100 24006KT P6SM BKN020=

USA.gov is the U.S. government's official web portal to all federal, state and local government web resources and services.